sensor_id;sensor_type;location;lat;lon;timestamp;P1;durP1;ratioP1;P2;durP2;ratioP2
422;SDS011;198;48.752;9.180;2022-11-20T00:01:38;9.50;;;3.70;;
422;SDS011;198;48.752;9.180;2022-11-20T00:04:03;6.87;;;3.50;;
422;SDS011;198;48.752;9.180;2022-11-20T00:06:29;6.80;;;3.20;;
422;SDS011;198;48.752;9.180;2022-11-20T00:08:55;6.77;;;3.53;;
422;SDS011;198;48.752;9.180;2022-11-20T00:11:23;9.17;;;4.03;;
422;SDS011;198;48.752;9.180;2022-11-20T00:13:50;4.23;;;2.80;;
422;SDS011;198;48.752;9.180;2022-11-20T00:16:18;8.97;;;4.00;;
422;SDS011;198;48.752;9.180;2022-11-20T00:18:46;5.37;;;3.50;;
422;SDS011;198;48.752;9.180;2022-11-20T00:21:13;5.60;;;3.27;;
422;SDS011;198;48.752;9.180;2022-11-20T00:23:41;3.67;;;2.73;;
422;SDS011;198;48.752;9.180;2022-11-20T00:26:08;4.77;;;3.30;;
422;SDS011;198;48.752;9.180;2022-11-20T00:28:35;11.70;;;3.23;;
422;SDS011;198;48.752;9.180;2022-11-20T00:31:02;4.50;;;2.80;;
422;SDS011;198;48.752;9.180;2022-11-20T00:33:28;6.47;;;3.60;;
422;SDS011;198;48.752;9.180;2022-11-20T00:35:58;7.60;;;3.60;;
422;SDS011;198;48.752;9.180;2022-11-20T00:38:35;5.53;;;2.60;;
422;SDS011;198;48.752;9.180;2022-11-20T00:41:02;13.17;;;3.40;;
422;SDS011;198;48.752;9.180;2022-11-20T00:43:29;6.93;;;3.50;;
422;SDS011;198;48.752;9.180;2022-11-20T00:46:04;3.70;;;2.93;;
422;SDS011;198;48.752;9.180;2022-11-20T00:48:31;5.00;;;2.73;;
422;SDS011;198;48.752;9.180;2022-11-20T00:50:57;4.63;;;2.90;;
422;SDS011;198;48.752;9.180;2022-11-20T00:53:22;6.33;;;2.73;;
422;SDS011;198;48.752;9.180;2022-11-20T00:55:55;5.20;;;3.20;;
422;SDS011;198;48.752;9.180;2022-11-20T00:58:22;5.87;;;2.60;;
422;SDS011;198;48.752;9.180;2022-11-20T01:00:49;3.93;;;2.43;;
422;SDS011;198;48.752;9.180;2022-11-20T01:03:15;5.03;;;2.90;;
422;SDS011;198;48.752;9.180;2022-11-20T01:05:42;3.77;;;3.07;;
422;SDS011;198;48.752;9.180;2022-11-20T01:08:07;5.30;;;3.10;;
422;SDS011;198;48.752;9.180;2022-11-20T01:10:33;3.53;;;2.63;;
422;SDS011;198;48.752;9.180;2022-11-20T01:12:59;3.03;;;2.73;;
422;SDS011;198;48.752;9.180;2022-11-20T01:15:43;4.10;;;2.70;;
422;SDS011;198;48.752;9.180;2022-11-20T01:18:08;6.20;;;3.17;;
422;SDS011;198;48.752;9.180;2022-11-20T01:20:34;5.20;;;3.13;;
422;SDS011;198;48.752;9.180;2022-11-20T01:23:01;4.40;;;2.77;;
422;SDS011;198;48.752;9.180;2022-11-20T01:25:27;3.33;;;2.30;;
422;SDS011;198;48.752;9.180;2022-11-20T01:27:52;3.87;;;2.80;;
422;SDS011;198;48.752;9.180;2022-11-20T01:30:18;2.97;;;2.13;;
422;SDS011;198;48.752;9.180;2022-11-20T01:32:43;2.40;;;2.20;;
422;SDS011;198;48.752;9.180;2022-11-20T01:35:09;3.63;;;3.33;;
422;SDS011;198;48.752;9.180;2022-11-20T01:37:35;4.00;;;2.77;;
422;SDS011;198;48.752;9.180;2022-11-20T01:40:00;4.90;;;3.13;;
422;SDS011;198;48.752;9.180;2022-11-20T01:42:26;4.03;;;2.60;;
422;SDS011;198;48.752;9.180;2022-11-20T01:51:14;5.07;;;2.90;;
422;SDS011;198;48.752;9.180;2022-11-20T01:53:57;5.73;;;2.97;;
422;SDS011;198;48.752;9.180;2022-11-20T01:56:25;6.23;;;3.37;;
422;SDS011;198;48.752;9.180;2022-11-20T01:58:54;4.40;;;3.10;;
422;SDS011;198;48.752;9.180;2022-11-20T02:01:23;4.03;;;2.93;;
422;SDS011;198;48.752;9.180;2022-11-20T02:03:49;6.93;;;3.00;;
422;SDS011;198;48.752;9.180;2022-11-20T02:06:29;6.87;;;3.07;;
422;SDS011;198;48.752;9.180;2022-11-20T02:08:59;3.23;;;2.53;;
422;SDS011;198;48.752;9.180;2022-11-20T02:11:25;4.20;;;2.87;;
422;SDS011;198;48.752;9.180;2022-11-20T02:13:50;3.17;;;2.43;;
422;SDS011;198;48.752;9.180;2022-11-20T02:16:18;3.80;;;2.67;;
422;SDS011;198;48.752;9.180;2022-11-20T02:18:47;8.80;;;2.53;;
422;SDS011;198;48.752;9.180;2022-11-20T02:21:15;4.00;;;2.23;;
422;SDS011;198;48.752;9.180;2022-11-20T02:24:11;2.47;;;2.27;;
422;SDS011;198;48.752;9.180;2022-11-20T02:26:41;2.67;;;2.20;;
422;SDS011;198;48.752;9.180;2022-11-20T02:29:15;4.73;;;3.20;;
422;SDS011;198;48.752;9.180;2022-11-20T02:31:43;7.33;;;2.60;;
422;SDS011;198;48.752;9.180;2022-11-20T02:34:10;5.30;;;3.20;;
422;SDS011;198;48.752;9.180;2022-11-20T02:36:36;2.93;;;2.60;;
422;SDS011;198;48.752;9.180;2022-11-20T02:39:04;8.33;;;2.73;;
422;SDS011;198;48.752;9.180;2022-11-20T02:41:34;4.03;;;2.77;;
422;SDS011;198;48.752;9.180;2022-11-20T02:44:02;5.07;;;2.60;;
422;SDS011;198;48.752;9.180;2022-11-20T02:46:28;5.70;;;3.00;;
422;SDS011;198;48.752;9.180;2022-11-20T02:48:54;5.07;;;3.33;;
422;SDS011;198;48.752;9.180;2022-11-20T02:51:20;5.97;;;2.97;;
422;SDS011;198;48.752;9.180;2022-11-20T02:53:46;4.70;;;3.10;;
422;SDS011;198;48.752;9.180;2022-11-20T02:56:12;3.73;;;3.10;;
422;SDS011;198;48.752;9.180;2022-11-20T02:58:37;14.43;;;3.53;;
422;SDS011;198;48.752;9.180;2022-11-20T03:01:03;3.97;;;2.93;;
422;SDS011;198;48.752;9.180;2022-11-20T03:03:28;13.23;;;3.83;;
422;SDS011;198;48.752;9.180;2022-11-20T03:05:54;6.27;;;3.33;;
422;SDS011;198;48.752;9.180;2022-11-20T03:08:19;6.10;;;3.27;;
422;SDS011;198;48.752;9.180;2022-11-20T03:10:45;5.73;;;3.07;;
422;SDS011;198;48.752;9.180;2022-11-20T03:13:10;6.87;;;3.10;;
422;SDS011;198;48.752;9.180;2022-11-20T03:15:36;8.47;;;3.07;;
422;SDS011;198;48.752;9.180;2022-11-20T03:18:02;6.83;;;3.43;;
422;SDS011;198;48.752;9.180;2022-11-20T03:20:28;5.73;;;3.10;;
422;SDS011;198;48.752;9.180;2022-11-20T03:22:54;6.57;;;3.20;;
422;SDS011;198;48.752;9.180;2022-11-20T03:25:20;10.40;;;3.67;;
422;SDS011;198;48.752;9.180;2022-11-20T03:27:46;4.60;;;3.37;;
422;SDS011;198;48.752;9.180;2022-11-20T03:30:12;6.10;;;3.30;;
422;SDS011;198;48.752;9.180;2022-11-20T03:32:38;4.73;;;3.30;;
422;SDS011;198;48.752;9.180;2022-11-20T03:35:03;4.00;;;3.07;;
422;SDS011;198;48.752;9.180;2022-11-20T03:37:29;6.63;;;4.00;;
422;SDS011;198;48.752;9.180;2022-11-20T03:39:55;6.17;;;3.77;;
422;SDS011;198;48.752;9.180;2022-11-20T03:42:20;7.27;;;3.97;;
422;SDS011;198;48.752;9.180;2022-11-20T03:45:05;6.07;;;3.10;;
422;SDS011;198;48.752;9.180;2022-11-20T03:47:30;3.93;;;3.37;;
422;SDS011;198;48.752;9.180;2022-11-20T03:49:56;5.57;;;2.93;;
422;SDS011;198;48.752;9.180;2022-11-20T03:52:21;7.37;;;3.50;;
422;SDS011;198;48.752;9.180;2022-11-20T03:54:47;6.40;;;3.63;;
422;SDS011;198;48.752;9.180;2022-11-20T03:57:12;6.83;;;3.67;;
422;SDS011;198;48.752;9.180;2022-11-20T03:59:38;7.03;;;3.77;;
422;SDS011;198;48.752;9.180;2022-11-20T04:02:03;5.40;;;3.63;;
422;SDS011;198;48.752;9.180;2022-11-20T04:04:29;9.40;;;3.63;;
422;SDS011;198;48.752;9.180;2022-11-20T04:06:54;7.27;;;4.23;;
422;SDS011;198;48.752;9.180;2022-11-20T04:09:20;5.80;;;3.90;;
422;SDS011;198;48.752;9.180;2022-11-20T04:11:45;9.40;;;4.40;;
422;SDS011;198;48.752;9.180;2022-11-20T04:14:14;6.70;;;3.90;;
422;SDS011;198;48.752;9.180;2022-11-20T04:16:41;8.80;;;4.17;;
422;SDS011;198;48.752;9.180;2022-11-20T04:19:09;7.40;;;4.37;;
422;SDS011;198;48.752;9.180;2022-11-20T04:21:36;7.60;;;3.20;;
422;SDS011;198;48.752;9.180;2022-11-20T04:24:02;6.07;;;3.60;;
422;SDS011;198;48.752;9.180;2022-11-20T04:26:29;4.50;;;3.30;;
422;SDS011;198;48.752;9.180;2022-11-20T04:28:55;7.73;;;4.43;;
422;SDS011;198;48.752;9.180;2022-11-20T04:31:25;4.87;;;3.57;;
422;SDS011;198;48.752;9.180;2022-11-20T04:33:53;7.17;;;4.67;;
422;SDS011;198;48.752;9.180;2022-11-20T04:36:19;5.73;;;3.67;;
422;SDS011;198;48.752;9.180;2022-11-20T04:38:55;7.70;;;3.40;;
422;SDS011;198;48.752;9.180;2022-11-20T04:41:22;5.30;;;3.80;;
422;SDS011;198;48.752;9.180;2022-11-20T04:43:50;7.97;;;3.33;;
422;SDS011;198;48.752;9.180;2022-11-20T04:46:17;5.40;;;3.77;;
422;SDS011;198;48.752;9.180;2022-11-20T04:48:44;6.10;;;4.10;;
422;SDS011;198;48.752;9.180;2022-11-20T04:51:09;7.50;;;3.80;;
422;SDS011;198;48.752;9.180;2022-11-20T04:53:35;7.87;;;4.20;;
422;SDS011;198;48.752;9.180;2022-11-20T04:56:04;10.30;;;3.87;;
422;SDS011;198;48.752;9.180;2022-11-20T04:58:32;6.30;;;4.33;;
422;SDS011;198;48.752;9.180;2022-11-20T05:01:05;6.27;;;3.33;;
422;SDS011;198;48.752;9.180;2022-11-20T05:03:32;7.53;;;3.53;;
422;SDS011;198;48.752;9.180;2022-11-20T05:06:04;18.83;;;4.43;;
422;SDS011;198;48.752;9.180;2022-11-20T05:08:30;5.40;;;3.60;;
422;SDS011;198;48.752;9.180;2022-11-20T05:13:35;10.00;;;4.97;;
422;SDS011;198;48.752;9.180;2022-11-20T05:16:06;5.70;;;3.63;;
422;SDS011;198;48.752;9.180;2022-11-20T05:18:33;6.13;;;3.83;;
422;SDS011;198;48.752;9.180;2022-11-20T05:20:59;10.27;;;3.83;;
422;SDS011;198;48.752;9.180;2022-11-20T05:23:25;6.50;;;3.53;;
422;SDS011;198;48.752;9.180;2022-11-20T05:25:52;7.63;;;3.33;;
422;SDS011;198;48.752;9.180;2022-11-20T05:28:19;11.50;;;3.73;;
422;SDS011;198;48.752;9.180;2022-11-20T05:30:44;8.53;;;3.30;;
422;SDS011;198;48.752;9.180;2022-11-20T05:33:10;7.80;;;3.70;;
422;SDS011;198;48.752;9.180;2022-11-20T05:35:35;9.63;;;3.80;;
422;SDS011;198;48.752;9.180;2022-11-20T05:38:01;4.60;;;3.00;;
422;SDS011;198;48.752;9.180;2022-11-20T05:40:26;4.93;;;3.30;;
422;SDS011;198;48.752;9.180;2022-11-20T05:42:52;3.67;;;2.80;;
422;SDS011;198;48.752;9.180;2022-11-20T05:45:18;6.67;;;2.70;;
422;SDS011;198;48.752;9.180;2022-11-20T05:47:43;4.90;;;3.40;;
422;SDS011;198;48.752;9.180;2022-11-20T05:50:09;5.43;;;3.57;;
422;SDS011;198;48.752;9.180;2022-11-20T05:52:34;7.13;;;3.33;;
422;SDS011;198;48.752;9.180;2022-11-20T05:55:00;7.10;;;3.70;;
422;SDS011;198;48.752;9.180;2022-11-20T05:57:26;4.87;;;3.20;;
422;SDS011;198;48.752;9.180;2022-11-20T05:59:51;4.73;;;3.13;;
422;SDS011;198;48.752;9.180;2022-11-20T06:02:17;7.30;;;2.60;;
422;SDS011;198;48.752;9.180;2022-11-20T06:04:42;4.63;;;3.23;;
422;SDS011;198;48.752;9.180;2022-11-20T06:07:08;5.87;;;3.20;;
422;SDS011;198;48.752;9.180;2022-11-20T06:09:33;4.80;;;2.97;;
422;SDS011;198;48.752;9.180;2022-11-20T06:11:59;4.23;;;2.90;;
422;SDS011;198;48.752;9.180;2022-11-20T06:14:24;4.00;;;2.80;;
422;SDS011;198;48.752;9.180;2022-11-20T06:16:50;7.17;;;4.00;;
422;SDS011;198;48.752;9.180;2022-11-20T06:19:15;9.70;;;2.63;;
422;SDS011;198;48.752;9.180;2022-11-20T06:21:41;5.20;;;3.07;;
422;SDS011;198;48.752;9.180;2022-11-20T06:24:08;5.57;;;2.73;;
422;SDS011;198;48.752;9.180;2022-11-20T06:26:34;6.53;;;3.60;;
422;SDS011;198;48.752;9.180;2022-11-20T06:29:00;7.77;;;3.60;;
422;SDS011;198;48.752;9.180;2022-11-20T06:31:25;4.77;;;3.00;;
422;SDS011;198;48.752;9.180;2022-11-20T06:33:52;7.00;;;2.93;;
422;SDS011;198;48.752;9.180;2022-11-20T06:36:18;8.83;;;3.33;;
422;SDS011;198;48.752;9.180;2022-11-20T06:38:45;4.10;;;3.40;;
422;SDS011;198;48.752;9.180;2022-11-20T06:41:12;4.20;;;3.10;;
422;SDS011;198;48.752;9.180;2022-11-20T06:43:39;6.30;;;2.87;;
422;SDS011;198;48.752;9.180;2022-11-20T06:46:04;4.07;;;3.03;;
422;SDS011;198;48.752;9.180;2022-11-20T06:48:30;8.93;;;2.73;;
422;SDS011;198;48.752;9.180;2022-11-20T06:50:56;4.23;;;2.70;;
422;SDS011;198;48.752;9.180;2022-11-20T06:53:22;4.57;;;2.57;;
422;SDS011;198;48.752;9.180;2022-11-20T06:55:49;5.40;;;2.50;;
422;SDS011;198;48.752;9.180;2022-11-20T06:58:15;3.30;;;2.60;;
422;SDS011;198;48.752;9.180;2022-11-20T07:00:42;4.27;;;2.80;;
422;SDS011;198;48.752;9.180;2022-11-20T07:03:09;4.70;;;2.77;;
422;SDS011;198;48.752;9.180;2022-11-20T07:05:36;3.70;;;2.83;;
422;SDS011;198;48.752;9.180;2022-11-20T07:08:03;7.20;;;2.70;;
422;SDS011;198;48.752;9.180;2022-11-20T07:10:29;7.83;;;3.50;;
422;SDS011;198;48.752;9.180;2022-11-20T07:12:55;4.90;;;3.03;;
422;SDS011;198;48.752;9.180;2022-11-20T07:15:21;3.63;;;2.80;;
422;SDS011;198;48.752;9.180;2022-11-20T07:17:48;3.23;;;2.30;;
422;SDS011;198;48.752;9.180;2022-11-20T07:20:14;3.20;;;2.50;;
422;SDS011;198;48.752;9.180;2022-11-20T07:22:40;3.07;;;2.77;;
422;SDS011;198;48.752;9.180;2022-11-20T07:25:06;7.27;;;3.00;;
422;SDS011;198;48.752;9.180;2022-11-20T07:27:33;5.07;;;2.50;;
422;SDS011;198;48.752;9.180;2022-11-20T07:29:59;7.60;;;3.47;;
422;SDS011;198;48.752;9.180;2022-11-20T07:32:25;7.67;;;2.50;;
422;SDS011;198;48.752;9.180;2022-11-20T07:34:51;5.97;;;2.87;;
422;SDS011;198;48.752;9.180;2022-11-20T07:37:17;5.20;;;3.00;;
422;SDS011;198;48.752;9.180;2022-11-20T07:39:43;2.53;;;2.40;;
422;SDS011;198;48.752;9.180;2022-11-20T07:42:08;2.60;;;2.40;;
422;SDS011;198;48.752;9.180;2022-11-20T07:44:34;4.90;;;2.67;;
422;SDS011;198;48.752;9.180;2022-11-20T07:47:00;5.20;;;2.50;;
422;SDS011;198;48.752;9.180;2022-11-20T07:49:27;2.70;;;2.57;;
422;SDS011;198;48.752;9.180;2022-11-20T07:51:53;3.13;;;2.43;;
422;SDS011;198;48.752;9.180;2022-11-20T07:54:19;3.43;;;2.17;;
422;SDS011;198;48.752;9.180;2022-11-20T07:56:48;2.40;;;1.90;;
422;SDS011;198;48.752;9.180;2022-11-20T07:59:14;5.70;;;2.80;;
422;SDS011;198;48.752;9.180;2022-11-20T08:01:40;5.97;;;2.80;;
422;SDS011;198;48.752;9.180;2022-11-20T08:04:06;2.50;;;2.30;;
422;SDS011;198;48.752;9.180;2022-11-20T08:06:32;3.60;;;2.50;;
422;SDS011;198;48.752;9.180;2022-11-20T08:08:58;3.60;;;2.20;;
422;SDS011;198;48.752;9.180;2022-11-20T08:11:23;3.00;;;2.63;;
422;SDS011;198;48.752;9.180;2022-11-20T08:14:07;2.63;;;2.50;;
422;SDS011;198;48.752;9.180;2022-11-20T08:16:39;3.10;;;2.10;;
422;SDS011;198;48.752;9.180;2022-11-20T08:19:09;3.13;;;1.97;;
422;SDS011;198;48.752;9.180;2022-11-20T08:21:35;3.20;;;2.13;;
422;SDS011;198;48.752;9.180;2022-11-20T08:24:01;2.60;;;2.03;;
422;SDS011;198;48.752;9.180;2022-11-20T08:26:26;3.00;;;2.23;;
422;SDS011;198;48.752;9.180;2022-11-20T08:28:53;2.40;;;2.20;;
422;SDS011;198;48.752;9.180;2022-11-20T08:31:22;2.70;;;2.30;;
422;SDS011;198;48.752;9.180;2022-11-20T08:33:49;4.20;;;2.20;;
422;SDS011;198;48.752;9.180;2022-11-20T08:36:15;5.07;;;2.13;;
422;SDS011;198;48.752;9.180;2022-11-20T08:38:41;2.10;;;1.50;;
422;SDS011;198;48.752;9.180;2022-11-20T08:41:07;2.40;;;1.83;;
422;SDS011;198;48.752;9.180;2022-11-20T08:43:55;5.53;;;1.90;;
422;SDS011;198;48.752;9.180;2022-11-20T08:46:27;2.90;;;2.07;;
422;SDS011;198;48.752;9.180;2022-11-20T08:48:57;6.30;;;2.70;;
422;SDS011;198;48.752;9.180;2022-11-20T08:51:23;2.10;;;1.83;;
422;SDS011;198;48.752;9.180;2022-11-20T08:53:49;3.93;;;2.33;;
422;SDS011;198;48.752;9.180;2022-11-20T08:56:14;3.27;;;1.80;;
422;SDS011;198;48.752;9.180;2022-11-20T08:58:40;3.80;;;2.03;;
422;SDS011;198;48.752;9.180;2022-11-20T09:01:06;3.10;;;2.10;;
422;SDS011;198;48.752;9.180;2022-11-20T09:03:31;3.03;;;1.63;;
422;SDS011;198;48.752;9.180;2022-11-20T09:05:58;5.20;;;2.40;;
422;SDS011;198;48.752;9.180;2022-11-20T09:08:25;2.87;;;1.73;;
422;SDS011;198;48.752;9.180;2022-11-20T09:10:52;2.17;;;1.60;;
422;SDS011;198;48.752;9.180;2022-11-20T09:13:19;5.70;;;2.13;;
422;SDS011;198;48.752;9.180;2022-11-20T09:15:45;3.03;;;1.80;;
422;SDS011;198;48.752;9.180;2022-11-20T09:18:10;1.80;;;1.70;;
422;SDS011;198;48.752;9.180;2022-11-20T09:20:36;1.47;;;1.33;;
422;SDS011;198;48.752;9.180;2022-11-20T09:23:02;3.30;;;1.87;;
422;SDS011;198;48.752;9.180;2022-11-20T09:25:27;1.57;;;1.47;;
422;SDS011;198;48.752;9.180;2022-11-20T09:27:56;1.50;;;1.40;;
422;SDS011;198;48.752;9.180;2022-11-20T09:30:22;1.60;;;1.30;;
422;SDS011;198;48.752;9.180;2022-11-20T09:32:48;1.60;;;1.23;;
422;SDS011;198;48.752;9.180;2022-11-20T09:35:13;4.33;;;1.60;;
422;SDS011;198;48.752;9.180;2022-11-20T09:37:39;1.20;;;1.10;;
422;SDS011;198;48.752;9.180;2022-11-20T09:40:05;2.90;;;1.53;;
422;SDS011;198;48.752;9.180;2022-11-20T09:45:30;1.30;;;1.20;;
422;SDS011;198;48.752;9.180;2022-11-20T09:48:18;1.90;;;1.10;;
422;SDS011;198;48.752;9.180;2022-11-20T09:51:18;1.33;;;1.27;;
422;SDS011;198;48.752;9.180;2022-11-20T09:54:03;1.60;;;1.47;;
422;SDS011;198;48.752;9.180;2022-11-20T09:56:43;1.30;;;1.20;;
422;SDS011;198;48.752;9.180;2022-11-20T09:59:26;1.10;;;1.00;;
422;SDS011;198;48.752;9.180;2022-11-20T10:02:01;1.43;;;1.33;;
422;SDS011;198;48.752;9.180;2022-11-20T10:04:37;1.27;;;1.17;;
422;SDS011;198;48.752;9.180;2022-11-20T10:07:16;1.10;;;1.07;;
422;SDS011;198;48.752;9.180;2022-11-20T10:09:54;1.20;;;1.10;;
422;SDS011;198;48.752;9.180;2022-11-20T10:12:31;1.20;;;1.10;;
422;SDS011;198;48.752;9.180;2022-11-20T10:21:03;1.30;;;1.20;;
422;SDS011;198;48.752;9.180;2022-11-20T10:29:51;5.90;;;1.23;;
422;SDS011;198;48.752;9.180;2022-11-20T10:32:30;1.73;;;1.63;;
422;SDS011;198;48.752;9.180;2022-11-20T10:35:03;1.37;;;1.30;;
422;SDS011;198;48.752;9.180;2022-11-20T10:37:52;1.53;;;1.43;;
422;SDS011;198;48.752;9.180;2022-11-20T10:40:27;1.97;;;1.43;;
422;SDS011;198;48.752;9.180;2022-11-20T10:43:01;3.17;;;1.53;;
422;SDS011;198;48.752;9.180;2022-11-20T10:50:40;1.33;;;1.27;;
422;SDS011;198;48.752;9.180;2022-11-20T10:56:11;1.70;;;1.50;;
422;SDS011;198;48.752;9.180;2022-11-20T11:01:42;1.67;;;1.60;;
422;SDS011;198;48.752;9.180;2022-11-20T11:07:12;3.47;;;1.53;;
422;SDS011;198;48.752;9.180;2022-11-20T11:09:43;3.57;;;2.03;;
422;SDS011;198;48.752;9.180;2022-11-20T11:12:12;2.07;;;1.77;;
422;SDS011;198;48.752;9.180;2022-11-20T11:14:42;1.90;;;1.90;;
422;SDS011;198;48.752;9.180;2022-11-20T11:17:18;3.10;;;1.60;;
422;SDS011;198;48.752;9.180;2022-11-20T11:22:30;1.70;;;1.60;;
422;SDS011;198;48.752;9.180;2022-11-20T11:24:58;1.87;;;1.80;;
422;SDS011;198;48.752;9.180;2022-11-20T11:27:24;2.30;;;1.90;;
422;SDS011;198;48.752;9.180;2022-11-20T11:29:49;2.97;;;1.77;;
422;SDS011;198;48.752;9.180;2022-11-20T11:32:25;1.50;;;1.40;;
422;SDS011;198;48.752;9.180;2022-11-20T11:35:04;1.90;;;1.30;;
422;SDS011;198;48.752;9.180;2022-11-20T11:37:35;2.40;;;1.80;;
422;SDS011;198;48.752;9.180;2022-11-20T11:40:03;12.27;;;3.00;;
422;SDS011;198;48.752;9.180;2022-11-20T11:42:30;2.73;;;1.70;;
422;SDS011;198;48.752;9.180;2022-11-20T11:44:57;1.77;;;1.40;;
422;SDS011;198;48.752;9.180;2022-11-20T11:47:31;3.43;;;1.93;;
422;SDS011;198;48.752;9.180;2022-11-20T11:52:37;4.20;;;2.00;;
422;SDS011;198;48.752;9.180;2022-11-20T11:55:25;1.20;;;1.10;;
422;SDS011;198;48.752;9.180;2022-11-20T12:00:57;3.77;;;1.70;;
422;SDS011;198;48.752;9.180;2022-11-20T12:03:35;3.30;;;1.57;;
422;SDS011;198;48.752;9.180;2022-11-20T12:06:09;5.40;;;1.93;;
422;SDS011;198;48.752;9.180;2022-11-20T12:11:24;2.63;;;1.80;;
422;SDS011;198;48.752;9.180;2022-11-20T12:14:11;1.57;;;1.50;;
422;SDS011;198;48.752;9.180;2022-11-20T12:16:40;4.00;;;1.50;;
422;SDS011;198;48.752;9.180;2022-11-20T12:19:12;2.30;;;1.50;;
422;SDS011;198;48.752;9.180;2022-11-20T12:22:00;2.13;;;1.30;;
422;SDS011;198;48.752;9.180;2022-11-20T12:25:11;3.17;;;1.80;;
422;SDS011;198;48.752;9.180;2022-11-20T12:30:11;3.17;;;1.33;;
422;SDS011;198;48.752;9.180;2022-11-20T12:35:42;8.13;;;2.00;;
422;SDS011;198;48.752;9.180;2022-11-20T12:47:23;2.17;;;1.90;;
422;SDS011;198;48.752;9.180;2022-11-20T12:52:54;7.63;;;1.67;;
422;SDS011;198;48.752;9.180;2022-11-20T12:58:36;2.37;;;1.37;;
422;SDS011;198;48.752;9.180;2022-11-20T13:01:31;2.07;;;1.43;;
422;SDS011;198;48.752;9.180;2022-11-20T13:04:32;1.23;;;1.13;;
422;SDS011;198;48.752;9.180;2022-11-20T13:07:06;13.73;;;1.50;;
422;SDS011;198;48.752;9.180;2022-11-20T13:09:36;1.60;;;1.03;;
422;SDS011;198;48.752;9.180;2022-11-20T13:17:24;3.60;;;1.43;;
422;SDS011;198;48.752;9.180;2022-11-20T13:20:01;1.17;;;1.17;;
422;SDS011;198;48.752;9.180;2022-11-20T13:22:43;6.80;;;1.10;;
422;SDS011;198;48.752;9.180;2022-11-20T13:25:10;1.73;;;1.00;;
422;SDS011;198;48.752;9.180;2022-11-20T13:27:47;2.07;;;1.40;;
422;SDS011;198;48.752;9.180;2022-11-20T13:30:16;1.37;;;1.27;;
422;SDS011;198;48.752;9.180;2022-11-20T13:35:23;2.30;;;1.23;;
422;SDS011;198;48.752;9.180;2022-11-20T13:38:01;8.03;;;1.20;;
422;SDS011;198;48.752;9.180;2022-11-20T13:40:31;1.60;;;1.13;;
422;SDS011;198;48.752;9.180;2022-11-20T13:43:07;2.83;;;1.10;;
422;SDS011;198;48.752;9.180;2022-11-20T13:45:55;1.57;;;1.30;;
422;SDS011;198;48.752;9.180;2022-11-20T13:48:38;6.43;;;1.33;;
422;SDS011;198;48.752;9.180;2022-11-20T14:02:19;9.27;;;1.73;;
422;SDS011;198;48.752;9.180;2022-11-20T14:04:48;1.77;;;1.50;;
422;SDS011;198;48.752;9.180;2022-11-20T14:07:16;1.30;;;1.23;;
422;SDS011;198;48.752;9.180;2022-11-20T14:09:53;1.60;;;1.10;;
422;SDS011;198;48.752;9.180;2022-11-20T14:12:21;3.57;;;1.90;;
422;SDS011;198;48.752;9.180;2022-11-20T14:14:52;2.60;;;1.70;;
422;SDS011;198;48.752;9.180;2022-11-20T14:19:46;5.57;;;1.80;;
422;SDS011;198;48.752;9.180;2022-11-20T14:22:18;1.40;;;1.30;;
422;SDS011;198;48.752;9.180;2022-11-20T14:24:45;2.50;;;1.50;;
422;SDS011;198;48.752;9.180;2022-11-20T14:27:12;2.30;;;1.50;;
422;SDS011;198;48.752;9.180;2022-11-20T14:29:40;1.30;;;1.20;;
422;SDS011;198;48.752;9.180;2022-11-20T14:32:08;6.17;;;1.33;;
422;SDS011;198;48.752;9.180;2022-11-20T14:34:36;6.17;;;1.93;;
422;SDS011;198;48.752;9.180;2022-11-20T14:37:04;5.77;;;1.13;;
422;SDS011;198;48.752;9.180;2022-11-20T14:39:36;2.60;;;1.43;;
422;SDS011;198;48.752;9.180;2022-11-20T14:42:14;3.80;;;1.40;;
422;SDS011;198;48.752;9.180;2022-11-20T14:44:41;2.60;;;1.53;;
422;SDS011;198;48.752;9.180;2022-11-20T14:47:08;3.33;;;1.57;;
422;SDS011;198;48.752;9.180;2022-11-20T14:49:37;11.03;;;3.10;;
422;SDS011;198;48.752;9.180;2022-11-20T14:52:14;8.73;;;2.33;;
422;SDS011;198;48.752;9.180;2022-11-20T14:57:26;2.30;;;1.80;;
422;SDS011;198;48.752;9.180;2022-11-20T15:02:41;4.53;;;1.57;;
422;SDS011;198;48.752;9.180;2022-11-20T15:05:07;2.73;;;1.77;;
422;SDS011;198;48.752;9.180;2022-11-20T15:07:35;1.47;;;1.43;;
422;SDS011;198;48.752;9.180;2022-11-20T15:10:09;1.43;;;1.33;;
422;SDS011;198;48.752;9.180;2022-11-20T15:12:46;1.27;;;1.20;;
422;SDS011;198;48.752;9.180;2022-11-20T15:17:55;1.90;;;1.30;;
422;SDS011;198;48.752;9.180;2022-11-20T15:20:22;4.83;;;1.53;;
422;SDS011;198;48.752;9.180;2022-11-20T15:22:51;4.70;;;1.87;;
422;SDS011;198;48.752;9.180;2022-11-20T15:25:17;1.60;;;1.60;;
422;SDS011;198;48.752;9.180;2022-11-20T15:27:43;6.63;;;1.70;;
422;SDS011;198;48.752;9.180;2022-11-20T15:30:16;2.73;;;2.00;;
422;SDS011;198;48.752;9.180;2022-11-20T15:32:43;4.80;;;2.13;;
422;SDS011;198;48.752;9.180;2022-11-20T15:35:10;4.00;;;1.50;;
422;SDS011;198;48.752;9.180;2022-11-20T15:37:37;5.27;;;2.30;;
422;SDS011;198;48.752;9.180;2022-11-20T15:40:03;2.10;;;1.70;;
422;SDS011;198;48.752;9.180;2022-11-20T15:42:30;3.80;;;2.50;;
422;SDS011;198;48.752;9.180;2022-11-20T15:44:55;7.20;;;2.23;;
422;SDS011;198;48.752;9.180;2022-11-20T15:47:24;3.40;;;2.20;;
422;SDS011;198;48.752;9.180;2022-11-20T15:49:52;3.27;;;1.77;;
422;SDS011;198;48.752;9.180;2022-11-20T15:52:17;5.97;;;2.57;;
422;SDS011;198;48.752;9.180;2022-11-20T15:54:43;8.13;;;3.40;;
422;SDS011;198;48.752;9.180;2022-11-20T15:57:09;1.37;;;1.37;;
422;SDS011;198;48.752;9.180;2022-11-20T15:59:34;2.10;;;1.77;;
422;SDS011;198;48.752;9.180;2022-11-20T16:02:07;2.83;;;1.57;;
422;SDS011;198;48.752;9.180;2022-11-20T16:04:35;4.90;;;2.23;;
422;SDS011;198;48.752;9.180;2022-11-20T16:07:00;2.47;;;1.83;;
422;SDS011;198;48.752;9.180;2022-11-20T16:09:26;2.87;;;1.90;;
422;SDS011;198;48.752;9.180;2022-11-20T16:11:51;2.27;;;1.83;;
422;SDS011;198;48.752;9.180;2022-11-20T16:14:17;3.37;;;2.27;;
422;SDS011;198;48.752;9.180;2022-11-20T16:17:02;3.90;;;2.30;;
422;SDS011;198;48.752;9.180;2022-11-20T16:19:27;4.70;;;2.00;;
422;SDS011;198;48.752;9.180;2022-11-20T16:21:53;15.40;;;2.60;;
422;SDS011;198;48.752;9.180;2022-11-20T16:24:18;5.10;;;3.10;;
422;SDS011;198;48.752;9.180;2022-11-20T16:26:44;5.80;;;2.40;;
422;SDS011;198;48.752;9.180;2022-11-20T16:29:10;3.20;;;2.23;;
422;SDS011;198;48.752;9.180;2022-11-20T16:31:36;6.40;;;2.57;;
422;SDS011;198;48.752;9.180;2022-11-20T16:34:03;3.13;;;2.47;;
422;SDS011;198;48.752;9.180;2022-11-20T16:36:31;4.33;;;2.30;;
422;SDS011;198;48.752;9.180;2022-11-20T16:39:00;5.47;;;2.77;;
422;SDS011;198;48.752;9.180;2022-11-20T16:41:29;4.20;;;2.20;;
422;SDS011;198;48.752;9.180;2022-11-20T16:43:58;9.00;;;2.00;;
422;SDS011;198;48.752;9.180;2022-11-20T16:46:26;13.13;;;2.87;;
422;SDS011;198;48.752;9.180;2022-11-20T16:48:59;10.00;;;2.80;;
422;SDS011;198;48.752;9.180;2022-11-20T16:51:27;5.80;;;2.57;;
422;SDS011;198;48.752;9.180;2022-11-20T16:53:54;4.00;;;2.87;;
422;SDS011;198;48.752;9.180;2022-11-20T16:56:22;6.53;;;3.07;;
422;SDS011;198;48.752;9.180;2022-11-20T16:58:49;4.43;;;2.53;;
422;SDS011;198;48.752;9.180;2022-11-20T17:01:16;6.30;;;2.87;;
422;SDS011;198;48.752;9.180;2022-11-20T17:03:45;4.77;;;2.50;;
422;SDS011;198;48.752;9.180;2022-11-20T17:06:18;5.00;;;3.70;;
422;SDS011;198;48.752;9.180;2022-11-20T17:08:45;4.53;;;2.43;;
422;SDS011;198;48.752;9.180;2022-11-20T17:11:13;8.33;;;2.93;;
422;SDS011;198;48.752;9.180;2022-11-20T17:13:40;4.30;;;2.53;;
422;SDS011;198;48.752;9.180;2022-11-20T17:16:07;5.33;;;2.50;;
422;SDS011;198;48.752;9.180;2022-11-20T17:18:37;4.53;;;2.50;;
422;SDS011;198;48.752;9.180;2022-11-20T17:21:03;8.63;;;3.10;;
422;SDS011;198;48.752;9.180;2022-11-20T17:23:33;5.13;;;3.00;;
422;SDS011;198;48.752;9.180;2022-11-20T17:26:04;5.20;;;2.80;;
422;SDS011;198;48.752;9.180;2022-11-20T17:28:33;8.33;;;2.67;;
422;SDS011;198;48.752;9.180;2022-11-20T17:31:00;3.97;;;2.77;;
422;SDS011;198;48.752;9.180;2022-11-20T17:33:26;6.07;;;2.93;;
422;SDS011;198;48.752;9.180;2022-11-20T17:35:53;9.93;;;3.27;;